createdAt,value
2023-01-03T00:01:58.711Z,138.93
2023-01-03T00:04:25.323Z,147.60
2023-01-03T00:07:10.239Z,131.98
2023-01-03T00:09:36.669Z,129.77
2023-01-03T00:12:25.582Z,141.27
2023-01-03T00:14:55.302Z,154.55
2023-01-03T00:17:22.147Z,157.38
2023-01-03T00:19:48.973Z,166.35
2023-01-03T00:22:16.146Z,169.25
2023-01-03T00:24:43.314Z,178.32
2023-01-03T00:27:09.871Z,172.32
2023-01-03T00:29:36.354Z,161.00
2023-01-03T00:32:03.288Z,170.45
2023-01-03T00:34:30.335Z,162.82
2023-01-03T00:36:57.046Z,152.77
2023-01-03T00:39:23.675Z,158.82
2023-01-03T00:41:50.151Z,163.05
2023-01-03T00:44:16.687Z,136.32
2023-01-03T00:46:43.534Z,147.52
2023-01-03T00:49:10.539Z,136.73
2023-01-03T00:51:37.848Z,140.02
2023-01-03T00:54:05.287Z,140.43
2023-01-03T00:56:33.345Z,136.32
2023-01-03T00:59:00.099Z,143.98
2023-01-03T01:01:26.683Z,137.85
2023-01-03T01:03:59.990Z,130.10
2023-01-03T01:06:28.118Z,131.32
2023-01-03T01:08:55.679Z,129.00
2023-01-03T01:11:22.414Z,151.75
2023-01-03T01:13:49.563Z,129.55
2023-01-03T01:16:17.795Z,127.00
2023-01-03T01:18:45.876Z,130.60
2023-01-03T01:21:14.237Z,134.48
2023-01-03T01:23:40.959Z,123.30
2023-01-03T01:26:08.524Z,131.85
2023-01-03T01:28:35.011Z,145.07
2023-01-03T01:31:02.557Z,131.93
2023-01-03T01:33:29.402Z,134.95
2023-01-03T01:35:55.799Z,122.90
2023-01-03T01:38:22.335Z,128.43
2023-01-03T01:40:48.814Z,139.27
2023-01-03T01:43:37.166Z,130.50
2023-01-03T01:46:17.922Z,125.28
2023-01-03T01:48:44.551Z,116.10
2023-01-03T01:51:11.878Z,116.30
2023-01-03T01:53:40.347Z,123.78
2023-01-03T01:56:13.627Z,132.80
2023-01-03T01:58:41.488Z,132.75
2023-01-03T02:01:12.351Z,127.80
2023-01-03T02:03:39.870Z,125.33
2023-01-03T02:06:08.221Z,125.20
2023-01-03T02:08:34.727Z,155.75
2023-01-03T02:11:16.452Z,166.98
2023-01-03T02:13:45.945Z,140.65
2023-01-03T02:16:15.223Z,167.55
2023-01-03T02:18:46.841Z,171.30
2023-01-03T02:21:18.273Z,167.15
2023-01-03T02:24:02.049Z,152.82
2023-01-03T02:26:36.633Z,155.85
2023-01-03T02:29:20.426Z,149.35
2023-01-03T02:31:57.425Z,152.10
2023-01-03T02:34:29.595Z,140.90
2023-01-03T02:37:00.883Z,143.07
2023-01-03T02:39:27.362Z,129.05
2023-01-03T02:42:22.900Z,140.32
2023-01-03T02:44:54.292Z,132.95
2023-01-03T02:47:21.469Z,137.15
2023-01-03T02:49:50.574Z,142.38
2023-01-03T02:52:29.776Z,138.00
2023-01-03T02:55:14.899Z,143.07
2023-01-03T02:57:47.172Z,119.07
2023-01-03T03:00:15.512Z,143.90
2023-01-03T03:02:45.911Z,136.73
2023-01-03T03:05:14.557Z,132.43
2023-01-03T03:07:41.032Z,130.30
2023-01-03T03:10:27.278Z,135.48
2023-01-03T03:13:13.906Z,144.52
2023-01-03T03:15:49.987Z,132.02
2023-01-03T03:18:22.099Z,140.98
2023-01-03T03:21:06.939Z,141.48
2023-01-03T03:23:53.819Z,148.35
2023-01-03T03:26:23.036Z,127.15
2023-01-03T03:28:54.995Z,134.00
2023-01-03T03:34:00.437Z,140.95
2023-01-03T03:36:41.654Z,127.57
2023-01-03T03:39:29.286Z,140.83
2023-01-03T03:42:15.728Z,129.93
2023-01-03T03:45:02.175Z,133.60
2023-01-03T03:47:51.909Z,133.93
2023-01-03T03:50:34.688Z,152.35
2023-01-03T03:53:04.214Z,134.30
2023-01-03T03:55:33.241Z,132.18
2023-01-03T03:58:15.220Z,150.18
2023-01-03T04:00:42.258Z,141.82
2023-01-03T04:03:09.687Z,143.98
2023-01-03T04:05:40.768Z,152.15
2023-01-03T04:08:07.548Z,104.50
2023-01-03T04:10:37.997Z,132.25
2023-01-03T04:13:05.005Z,141.25
2023-01-03T04:15:31.504Z,133.52
2023-01-03T04:17:58.091Z,142.25
2023-01-03T04:20:24.547Z,148.73
2023-01-03T04:22:51.035Z,152.32
2023-01-03T04:25:17.455Z,149.10
2023-01-03T04:27:44.476Z,146.60
2023-01-03T04:30:11.592Z,141.32
2023-01-03T04:32:38.201Z,144.32
2023-01-03T04:35:04.806Z,156.80
2023-01-03T04:37:31.311Z,130.43
2023-01-03T04:39:57.763Z,145.75
2023-01-03T04:42:43.096Z,173.68
2023-01-03T04:45:09.896Z,151.02
2023-01-03T04:47:36.302Z,128.50
2023-01-03T04:50:02.795Z,139.63
2023-01-03T04:52:29.696Z,146.43
2023-01-03T04:54:56.289Z,144.27
2023-01-03T04:57:22.809Z,153.75
2023-01-03T04:59:49.239Z,146.90
2023-01-03T05:02:15.811Z,151.23
2023-01-03T05:04:42.462Z,147.30
2023-01-03T05:07:09.015Z,143.35
2023-01-03T05:09:35.467Z,136.57
2023-01-03T05:12:01.937Z,142.68
2023-01-03T05:14:28.361Z,143.38
2023-01-03T05:16:54.843Z,130.73
2023-01-03T05:19:21.329Z,144.60
2023-01-03T05:22:06.380Z,134.57
2023-01-03T05:24:51.279Z,139.80
2023-01-03T05:27:17.814Z,146.05
2023-01-03T05:29:44.454Z,139.63
2023-01-03T05:32:11.086Z,141.45
2023-01-03T05:34:37.610Z,127.88
2023-01-03T05:37:04.036Z,119.00
2023-01-03T05:39:30.535Z,121.65
2023-01-03T05:41:59.939Z,118.85
2023-01-03T05:44:27.135Z,109.07
2023-01-03T05:46:53.671Z,128.63
2023-01-03T05:49:20.088Z,120.85
2023-01-03T05:51:46.509Z,134.77
2023-01-03T05:54:14.374Z,140.55
2023-01-03T05:56:40.930Z,129.50
2023-01-03T05:59:07.954Z,156.57
2023-01-03T06:01:34.532Z,132.90
2023-01-03T06:04:01.169Z,122.10
2023-01-03T06:06:27.788Z,128.15
2023-01-03T06:08:54.904Z,125.43
2023-01-03T06:11:21.588Z,126.80
2023-01-03T06:13:47.991Z,117.85
2023-01-03T06:16:38.527Z,121.95
2023-01-03T06:19:05.775Z,118.10
2023-01-03T06:21:32.416Z,116.18
2023-01-03T06:23:58.847Z,121.00
2023-01-03T06:26:25.504Z,115.13
2023-01-03T06:28:52.077Z,121.20
2023-01-03T06:31:19.041Z,115.50
2023-01-03T06:33:45.637Z,107.68
2023-01-03T06:36:13.227Z,119.10
2023-01-03T06:38:40.109Z,116.82
2023-01-03T06:41:06.956Z,116.38
2023-01-03T06:43:33.433Z,104.60
2023-01-03T06:46:19.333Z,103.25
2023-01-03T06:49:04.552Z,103.60
2023-01-03T06:51:49.942Z,106.53
2023-01-03T06:54:22.230Z,94.85
2023-01-03T06:56:49.196Z,95.65
2023-01-03T06:59:15.644Z,87.65
2023-01-03T07:01:42.188Z,92.00
2023-01-03T07:04:08.814Z,90.80
2023-01-03T07:06:35.303Z,100.82
2023-01-03T07:09:01.861Z,89.53
2023-01-03T07:11:28.331Z,85.68
2023-01-03T07:14:00.757Z,83.40
2023-01-03T07:16:28.642Z,77.90
2023-01-03T07:18:55.845Z,76.43
2023-01-03T07:21:23.121Z,73.78
2023-01-03T07:23:49.566Z,64.28
2023-01-03T07:26:15.950Z,68.30
2023-01-03T07:28:42.390Z,59.13
2023-01-03T07:31:08.924Z,63.60
2023-01-03T07:33:37.305Z,62.30
2023-01-03T07:36:11.290Z,62.22
2023-01-03T07:38:38.840Z,59.33
2023-01-03T07:41:05.880Z,57.78
2023-01-03T07:43:38.305Z,58.45
2023-01-03T07:46:25.096Z,60.42
2023-01-03T07:48:52.444Z,62.67
2023-01-03T07:51:20.578Z,53.03
2023-01-03T07:53:49.950Z,55.22
2023-01-03T07:56:19.374Z,55.50
2023-01-03T07:58:45.987Z,44.70
2023-01-03T08:01:14.743Z,48.88
2023-01-03T08:03:41.801Z,52.30
2023-01-03T08:06:10.143Z,49.33
2023-01-03T08:08:36.894Z,41.35
2023-01-03T08:11:22.785Z,40.58
2023-01-03T08:13:50.196Z,40.33
2023-01-03T08:16:17.906Z,32.83
2023-01-03T08:18:45.240Z,37.70
2023-01-03T08:21:14.405Z,33.45
2023-01-03T08:23:42.265Z,32.55
2023-01-03T08:26:08.691Z,36.47
2023-01-03T08:28:35.507Z,30.77
2023-01-03T08:31:04.326Z,26.90
2023-01-03T08:33:35.004Z,22.25
2023-01-03T08:36:04.192Z,25.23
2023-01-03T08:38:37.292Z,25.50
2023-01-03T15:07:04.771Z,17.90
2023-01-03T15:09:35.638Z,16.98
2023-01-03T15:12:05.659Z,19.25
2023-01-03T15:14:34.057Z,26.17
2023-01-03T15:17:07.226Z,27.95
2023-01-03T15:19:36.454Z,19.92
2023-01-03T15:22:08.861Z,26.92
2023-01-03T15:24:43.260Z,37.90
2023-01-03T15:27:30.616Z,24.42
2023-01-03T15:30:13.910Z,21.75
2023-01-03T15:32:53.897Z,23.42
2023-01-03T15:35:21.585Z,26.80
2023-01-03T15:37:51.816Z,19.75
2023-01-03T15:40:19.400Z,27.52
2023-01-03T15:43:04.647Z,25.75
2023-01-03T15:45:36.368Z,23.08
2023-01-03T15:48:04.970Z,26.67
2023-01-03T15:50:45.551Z,48.40
2023-01-03T15:53:22.637Z,31.33
2023-01-03T15:55:54.589Z,22.65
2023-01-03T15:58:21.135Z,25.13
2023-01-03T16:00:49.621Z,29.83
2023-01-03T16:03:17.704Z,35.42
2023-01-03T16:05:45.576Z,40.85
2023-01-03T16:08:26.239Z,37.50
2023-01-03T16:10:53.886Z,38.85
2023-01-03T16:13:21.180Z,36.60
2023-01-03T16:15:48.762Z,40.22
2023-01-03T16:18:16.747Z,46.75
2023-01-03T16:20:44.584Z,40.90
2023-01-03T16:23:19.259Z,37.22
2023-01-03T16:25:46.429Z,40.88
2023-01-03T16:28:12.910Z,38.60
2023-01-03T16:30:40.697Z,42.83
2023-01-03T16:33:09.241Z,43.88
2023-01-03T16:35:36.613Z,39.05
2023-01-03T16:38:03.071Z,38.00
2023-01-03T16:40:30.292Z,40.72
2023-01-03T16:42:56.815Z,40.35
2023-01-03T16:45:24.106Z,43.30
2023-01-03T16:47:51.952Z,43.85
2023-01-03T16:50:20.807Z,39.78
2023-01-03T16:52:48.451Z,45.50
2023-01-03T16:55:23.652Z,45.90
2023-01-03T16:57:54.182Z,45.00
2023-01-03T17:00:24.700Z,52.00
2023-01-03T17:02:51.613Z,52.33
2023-01-03T17:05:18.610Z,51.20
2023-01-03T17:07:47.168Z,68.00
2023-01-03T17:10:21.643Z,52.95
2023-01-03T17:12:48.811Z,62.80
2023-01-03T17:15:15.295Z,69.30
2023-01-03T17:17:42.502Z,67.28
2023-01-03T17:20:17.395Z,56.00
2023-01-03T17:22:55.549Z,45.78
2023-01-03T17:25:22.104Z,47.08
2023-01-03T17:27:52.733Z,47.35
2023-01-03T17:30:20.751Z,69.22
2023-01-03T17:32:48.032Z,58.00
2023-01-03T17:35:15.418Z,58.58
2023-01-03T17:38:14.177Z,70.38
2023-01-03T17:40:33.983Z,66.75
2023-01-03T17:43:02.357Z,72.13
2023-01-03T17:45:47.898Z,67.07
2023-01-03T17:48:35.537Z,58.65
2023-01-03T17:51:02.157Z,57.70
2023-01-03T17:53:31.603Z,74.60
2023-01-03T17:55:58.055Z,58.58
2023-01-03T17:58:44.373Z,57.53
2023-01-03T18:01:14.083Z,49.78
2023-01-03T18:03:43.583Z,60.22
2023-01-03T18:06:15.371Z,64.40
2023-01-03T18:08:42.007Z,86.50
2023-01-03T18:11:14.931Z,67.85
2023-01-03T18:13:41.517Z,64.93
2023-01-03T18:16:13.456Z,64.95
2023-01-03T18:18:39.928Z,62.97
2023-01-03T18:21:17.585Z,74.30
2023-01-03T18:23:44.539Z,74.18
2023-01-03T18:26:13.174Z,70.78
2023-01-03T18:28:40.532Z,77.65
2023-01-03T18:31:07.426Z,78.25
2023-01-03T18:33:36.432Z,116.97
2023-01-03T18:36:02.893Z,116.10
2023-01-03T18:38:30.567Z,116.47
2023-01-03T18:41:04.396Z,74.38
2023-01-03T18:43:31.443Z,80.10
2023-01-03T18:45:58.765Z,57.10
2023-01-03T18:48:25.324Z,66.78
2023-01-03T18:50:58.359Z,169.05
2023-01-03T18:53:27.470Z,159.77
2023-01-03T18:55:53.955Z,90.28
2023-01-03T18:58:25.811Z,65.93
2023-01-03T19:03:23.874Z,135.75
2023-01-03T19:05:50.929Z,70.75
2023-01-03T19:08:18.213Z,123.70
2023-01-03T19:10:46.050Z,98.93
2023-01-03T19:13:24.545Z,70.80
2023-01-03T19:15:51.915Z,83.65
2023-01-03T19:18:18.466Z,70.90
2023-01-03T19:20:46.409Z,60.47
2023-01-03T19:23:20.076Z,59.75
2023-01-03T19:25:47.444Z,107.97
2023-01-03T19:28:14.196Z,70.28
2023-01-03T19:30:44.424Z,85.25
2023-01-03T19:33:16.526Z,115.85
2023-01-03T19:35:43.562Z,158.38
2023-01-03T19:38:11.371Z,109.18
2023-01-03T19:40:38.797Z,98.10
2023-01-03T19:43:05.540Z,78.65
2023-01-03T19:45:35.349Z,104.95
2023-01-03T19:48:03.658Z,82.57
2023-01-03T19:50:32.551Z,75.82
2023-01-03T19:52:59.050Z,148.23
2023-01-03T19:55:28.408Z,76.78
2023-01-03T19:57:55.089Z,66.07
2023-01-03T20:00:24.449Z,109.13
2023-01-03T20:02:53.126Z,62.80
2023-01-03T20:05:19.636Z,60.67
2023-01-03T20:07:47.337Z,79.55
2023-01-03T20:10:14.978Z,71.50
2023-01-03T20:12:43.310Z,70.95
2023-01-03T20:15:15.448Z,66.40
2023-01-03T20:17:42.649Z,86.72
2023-01-03T20:20:12.472Z,94.68
2023-01-03T20:25:28.444Z,75.40
2023-01-03T20:27:56.165Z,76.22
2023-01-03T20:30:25.165Z,73.40
2023-01-03T20:32:52.038Z,63.80
2023-01-03T20:38:10.038Z,89.63
2023-01-03T20:40:37.403Z,99.05
2023-01-03T20:43:05.508Z,91.78
2023-01-03T20:45:34.397Z,82.30
2023-01-03T20:48:00.834Z,64.75
2023-01-03T20:50:30.462Z,149.45
2023-01-03T20:52:57.993Z,110.85
2023-01-03T20:55:25.610Z,65.03
2023-01-03T20:57:52.903Z,55.70
2023-01-03T21:00:21.507Z,46.30
2023-01-03T21:02:50.481Z,40.67
2023-01-03T21:05:17.617Z,38.15
2023-01-03T21:08:03.877Z,43.10
2023-01-03T21:10:33.382Z,47.03
2023-01-03T21:13:06.504Z,43.33
2023-01-03T21:15:33.403Z,41.20
2023-01-03T21:17:59.929Z,41.72
2023-01-03T21:20:29.590Z,40.33
2023-01-03T21:22:57.648Z,42.63
2023-01-03T21:25:26.370Z,41.30
2023-01-03T21:27:52.930Z,45.53
2023-01-03T21:30:20.971Z,38.33
2023-01-03T21:32:47.856Z,37.60
2023-01-03T21:35:15.717Z,44.67
2023-01-03T21:37:44.624Z,42.15
2023-01-03T21:40:18.904Z,42.65
2023-01-03T21:43:05.053Z,35.65
2023-01-03T21:45:37.863Z,36.10
2023-01-03T21:48:08.321Z,39.08
2023-01-03T21:50:37.527Z,46.97
2023-01-03T21:53:07.183Z,41.13
2023-01-03T21:55:34.753Z,38.92
2023-01-03T21:58:01.222Z,38.17
2023-01-03T22:00:30.280Z,37.28
2023-01-03T22:03:15.489Z,36.83
2023-01-03T22:05:42.744Z,36.33
2023-01-03T22:08:09.285Z,37.90
2023-01-03T22:10:37.907Z,37.00
2023-01-03T22:13:05.869Z,32.92
2023-01-03T22:15:35.491Z,31.60
2023-01-03T22:18:01.882Z,33.33
2023-01-03T22:20:34.695Z,32.05
2023-01-03T22:23:05.334Z,37.25
2023-01-03T22:25:31.768Z,38.65
2023-01-03T22:27:59.460Z,37.38
2023-01-03T22:30:25.959Z,38.22
2023-01-03T22:32:52.505Z,40.72
2023-01-03T22:35:19.861Z,41.30
2023-01-03T22:37:46.480Z,39.85
2023-01-03T22:40:17.109Z,37.47
2023-01-03T22:42:43.532Z,44.60
2023-01-03T22:45:10.244Z,45.20
2023-01-03T22:47:38.080Z,40.33
2023-01-03T22:50:05.996Z,40.50
2023-01-03T22:52:33.121Z,45.70
2023-01-03T22:54:59.570Z,42.72
2023-01-03T22:57:26.201Z,43.67
2023-01-03T22:59:53.351Z,44.20
2023-01-03T23:02:24.638Z,52.17
2023-01-03T23:04:55.605Z,47.53
2023-01-03T23:07:22.039Z,52.05
2023-01-03T23:09:48.570Z,51.17
2023-01-03T23:12:34.178Z,54.80
2023-01-03T23:15:00.628Z,50.22
2023-01-03T23:17:46.083Z,55.60
2023-01-03T23:20:15.055Z,59.50
2023-01-03T23:22:44.636Z,61.85
2023-01-03T23:25:11.058Z,68.15
2023-01-03T23:27:37.526Z,76.10
2023-01-03T23:30:04.858Z,80.88
2023-01-03T23:32:32.089Z,67.88
2023-01-03T23:34:59.410Z,82.28
2023-01-03T23:37:26.575Z,73.05
2023-01-03T23:39:53.199Z,77.88
2023-01-03T23:42:19.653Z,72.70
2023-01-03T23:44:46.133Z,80.13
2023-01-03T23:47:12.971Z,79.65
2023-01-03T23:49:39.644Z,75.28
2023-01-03T23:52:06.223Z,83.95
2023-01-03T23:54:32.691Z,81.05
2023-01-03T23:56:59.194Z,80.22
2023-01-03T23:59:25.678Z,89.95
